sensor_id;sensor_type;location;lat;lon;timestamp;temperature;humidity
4312;DHT22;2169;49.086;9.284;2023-05-27T00:02:06;17.40;41.80
4312;DHT22;2169;49.086;9.284;2023-05-27T00:04:33;17.30;41.80
4312;DHT22;2169;49.086;9.284;2023-05-27T00:06:59;17.30;41.90
4312;DHT22;2169;49.086;9.284;2023-05-27T00:09:26;17.30;42.00
4312;DHT22;2169;49.086;9.284;2023-05-27T00:11:53;17.20;42.10
4312;DHT22;2169;49.086;9.284;2023-05-27T00:14:20;17.10;42.20
4312;DHT22;2169;49.086;9.284;2023-05-27T00:16:48;17.10;42.90
4312;DHT22;2169;49.086;9.284;2023-05-27T00:19:16;17.10;42.40
4312;DHT22;2169;49.086;9.284;2023-05-27T00:21:43;17.10;42.50
4312;DHT22;2169;49.086;9.284;2023-05-27T00:24:10;17.00;42.50
4312;DHT22;2169;49.086;9.284;2023-05-27T00:26:37;17.00;42.60
4312;DHT22;2169;49.086;9.284;2023-05-27T00:29:04;17.00;42.90
4312;DHT22;2169;49.086;9.284;2023-05-27T00:31:31;16.90;42.90
4312;DHT22;2169;49.086;9.284;2023-05-27T00:33:59;16.90;43.00
4312;DHT22;2169;49.086;9.284;2023-05-27T00:36:26;16.90;43.00
4312;DHT22;2169;49.086;9.284;2023-05-27T00:38:52;16.90;43.00
4312;DHT22;2169;49.086;9.284;2023-05-27T00:41:19;16.80;43.00
4312;DHT22;2169;49.086;9.284;2023-05-27T00:43:46;16.80;43.20
4312;DHT22;2169;49.086;9.284;2023-05-27T00:46:13;16.80;43.20
4312;DHT22;2169;49.086;9.284;2023-05-27T00:48:40;16.80;43.30
4312;DHT22;2169;49.086;9.284;2023-05-27T00:51:09;16.70;43.30
4312;DHT22;2169;49.086;9.284;2023-05-27T00:53:39;16.70;43.40
4312;DHT22;2169;49.086;9.284;2023-05-27T00:56:07;16.70;43.50
4312;DHT22;2169;49.086;9.284;2023-05-27T00:58:34;16.70;43.60
4312;DHT22;2169;49.086;9.284;2023-05-27T01:01:02;16.60;43.50
4312;DHT22;2169;49.086;9.284;2023-05-27T01:03:29;16.60;43.60
4312;DHT22;2169;49.086;9.284;2023-05-27T01:06:05;16.60;43.70
4312;DHT22;2169;49.086;9.284;2023-05-27T01:08:44;16.60;43.80
4312;DHT22;2169;49.086;9.284;2023-05-27T01:11:12;16.60;43.80
4312;DHT22;2169;49.086;9.284;2023-05-27T01:13:45;16.50;43.80
4312;DHT22;2169;49.086;9.284;2023-05-27T01:16:13;16.50;43.80
4312;DHT22;2169;49.086;9.284;2023-05-27T01:18:44;16.50;43.90
4312;DHT22;2169;49.086;9.284;2023-05-27T01:21:15;16.50;44.00
4312;DHT22;2169;49.086;9.284;2023-05-27T01:23:47;16.40;44.00
4312;DHT22;2169;49.086;9.284;2023-05-27T01:26:14;16.40;44.00
4312;DHT22;2169;49.086;9.284;2023-05-27T01:28:41;16.40;44.10
4312;DHT22;2169;49.086;9.284;2023-05-27T01:31:13;16.30;44.20
4312;DHT22;2169;49.086;9.284;2023-05-27T01:33:46;16.30;44.30
4312;DHT22;2169;49.086;9.284;2023-05-27T01:36:20;16.30;44.40
4312;DHT22;2169;49.086;9.284;2023-05-27T01:38:50;16.20;44.50
4312;DHT22;2169;49.086;9.284;2023-05-27T01:41:18;16.20;44.50
4312;DHT22;2169;49.086;9.284;2023-05-27T01:43:47;16.10;44.50
4312;DHT22;2169;49.086;9.284;2023-05-27T01:46:14;16.10;44.60
4312;DHT22;2169;49.086;9.284;2023-05-27T01:48:41;16.10;44.70
4312;DHT22;2169;49.086;9.284;2023-05-27T01:51:08;16.00;44.70
4312;DHT22;2169;49.086;9.284;2023-05-27T01:53:35;16.00;44.80
4312;DHT22;2169;49.086;9.284;2023-05-27T01:56:04;15.90;44.80
4312;DHT22;2169;49.086;9.284;2023-05-27T01:58:31;15.90;44.90
4312;DHT22;2169;49.086;9.284;2023-05-27T02:00:57;15.90;45.00
4312;DHT22;2169;49.086;9.284;2023-05-27T02:03:24;15.80;45.00
4312;DHT22;2169;49.086;9.284;2023-05-27T02:05:52;15.80;45.00
4312;DHT22;2169;49.086;9.284;2023-05-27T02:08:19;15.80;45.10
4312;DHT22;2169;49.086;9.284;2023-05-27T02:10:46;15.80;45.20
4312;DHT22;2169;49.086;9.284;2023-05-27T02:13:14;15.70;45.20
4312;DHT22;2169;49.086;9.284;2023-05-27T02:15:40;15.70;45.30
4312;DHT22;2169;49.086;9.284;2023-05-27T02:18:07;15.60;45.40
4312;DHT22;2169;49.086;9.284;2023-05-27T02:20:34;15.60;45.50
4312;DHT22;2169;49.086;9.284;2023-05-27T02:23:01;15.60;45.50
4312;DHT22;2169;49.086;9.284;2023-05-27T02:25:30;15.60;45.60
4312;DHT22;2169;49.086;9.284;2023-05-27T02:27:57;15.50;45.60
4312;DHT22;2169;49.086;9.284;2023-05-27T02:30:29;15.50;45.60
4312;DHT22;2169;49.086;9.284;2023-05-27T02:32:56;15.50;45.70
4312;DHT22;2169;49.086;9.284;2023-05-27T02:35:23;15.50;45.80
4312;DHT22;2169;49.086;9.284;2023-05-27T02:37:50;15.40;45.70
4312;DHT22;2169;49.086;9.284;2023-05-27T02:40:23;15.40;45.80
4312;DHT22;2169;49.086;9.284;2023-05-27T02:42:50;15.40;46.00
4312;DHT22;2169;49.086;9.284;2023-05-27T02:45:17;15.30;45.90
4312;DHT22;2169;49.086;9.284;2023-05-27T02:47:45;15.30;46.00
4312;DHT22;2169;49.086;9.284;2023-05-27T02:50:12;15.20;46.00
4312;DHT22;2169;49.086;9.284;2023-05-27T02:52:39;15.20;46.10
4312;DHT22;2169;49.086;9.284;2023-05-27T02:55:07;15.20;46.20
4312;DHT22;2169;49.086;9.284;2023-05-27T02:57:33;15.10;46.20
4312;DHT22;2169;49.086;9.284;2023-05-27T03:00:00;15.10;46.20
4312;DHT22;2169;49.086;9.284;2023-05-27T03:02:27;15.10;46.30
4312;DHT22;2169;49.086;9.284;2023-05-27T03:04:55;15.10;46.30
4312;DHT22;2169;49.086;9.284;2023-05-27T03:07:22;15.00;46.30
4312;DHT22;2169;49.086;9.284;2023-05-27T03:09:49;15.00;46.40
4312;DHT22;2169;49.086;9.284;2023-05-27T03:12:15;15.00;46.50
4312;DHT22;2169;49.086;9.284;2023-05-27T03:14:42;14.90;46.40
4312;DHT22;2169;49.086;9.284;2023-05-27T03:17:09;14.90;46.60
4312;DHT22;2169;49.086;9.284;2023-05-27T03:19:35;14.90;46.60
4312;DHT22;2169;49.086;9.284;2023-05-27T03:22:04;15.10;47.10
4312;DHT22;2169;49.086;9.284;2023-05-27T03:24:32;14.90;46.90
4312;DHT22;2169;49.086;9.284;2023-05-27T03:26:59;14.80;46.90
4312;DHT22;2169;49.086;9.284;2023-05-27T03:29:26;14.80;47.00
4312;DHT22;2169;49.086;9.284;2023-05-27T03:31:53;14.70;46.90
4312;DHT22;2169;49.086;9.284;2023-05-27T03:34:20;14.70;46.90
4312;DHT22;2169;49.086;9.284;2023-05-27T03:36:47;14.70;47.00
4312;DHT22;2169;49.086;9.284;2023-05-27T03:39:17;14.60;47.00
4312;DHT22;2169;49.086;9.284;2023-05-27T03:41:44;14.60;47.00
4312;DHT22;2169;49.086;9.284;2023-05-27T03:44:10;14.60;47.10
4312;DHT22;2169;49.086;9.284;2023-05-27T03:46:37;14.50;47.00
4312;DHT22;2169;49.086;9.284;2023-05-27T03:49:04;14.50;47.10
4312;DHT22;2169;49.086;9.284;2023-05-27T03:51:30;14.50;47.10
4312;DHT22;2169;49.086;9.284;2023-05-27T03:53:57;14.50;47.10
4312;DHT22;2169;49.086;9.284;2023-05-27T03:56:25;14.50;47.10
4312;DHT22;2169;49.086;9.284;2023-05-27T03:58:52;14.40;47.10
4312;DHT22;2169;49.086;9.284;2023-05-27T04:01:19;14.40;47.10
4312;DHT22;2169;49.086;9.284;2023-05-27T04:03:46;14.30;47.10
4312;DHT22;2169;49.086;9.284;2023-05-27T04:06:13;14.40;47.30
4312;DHT22;2169;49.086;9.284;2023-05-27T04:08:39;14.30;47.30
4312;DHT22;2169;49.086;9.284;2023-05-27T04:11:10;14.20;47.20
4312;DHT22;2169;49.086;9.284;2023-05-27T04:13:39;14.20;47.30
4312;DHT22;2169;49.086;9.284;2023-05-27T04:16:05;14.30;47.40
4312;DHT22;2169;49.086;9.284;2023-05-27T04:18:33;14.20;47.40
4312;DHT22;2169;49.086;9.284;2023-05-27T04:21:01;14.20;47.40
4312;DHT22;2169;49.086;9.284;2023-05-27T04:23:27;14.20;47.40
4312;DHT22;2169;49.086;9.284;2023-05-27T04:25:54;14.20;47.40
4312;DHT22;2169;49.086;9.284;2023-05-27T04:28:21;14.20;47.40
4312;DHT22;2169;49.086;9.284;2023-05-27T04:30:49;14.20;47.50
4312;DHT22;2169;49.086;9.284;2023-05-27T04:33:16;14.20;47.50
4312;DHT22;2169;49.086;9.284;2023-05-27T04:35:44;14.10;47.40
4312;DHT22;2169;49.086;9.284;2023-05-27T04:38:10;14.10;47.40
4312;DHT22;2169;49.086;9.284;2023-05-27T04:40:42;14.10;47.40
4312;DHT22;2169;49.086;9.284;2023-05-27T04:43:10;14.10;47.50
4312;DHT22;2169;49.086;9.284;2023-05-27T04:45:39;14.10;47.50
4312;DHT22;2169;49.086;9.284;2023-05-27T04:48:08;14.10;47.60
4312;DHT22;2169;49.086;9.284;2023-05-27T04:50:35;14.10;47.60
4312;DHT22;2169;49.086;9.284;2023-05-27T04:53:02;14.10;47.60
4312;DHT22;2169;49.086;9.284;2023-05-27T04:55:29;14.10;47.60
4312;DHT22;2169;49.086;9.284;2023-05-27T04:57:56;14.10;47.60
4312;DHT22;2169;49.086;9.284;2023-05-27T05:00:23;14.10;47.60
4312;DHT22;2169;49.086;9.284;2023-05-27T05:03:04;14.10;47.60
4312;DHT22;2169;49.086;9.284;2023-05-27T05:05:32;14.20;47.70
4312;DHT22;2169;49.086;9.284;2023-05-27T05:07:59;14.10;47.70
4312;DHT22;2169;49.086;9.284;2023-05-27T05:10:26;14.10;47.70
4312;DHT22;2169;49.086;9.284;2023-05-27T05:12:53;14.20;47.70
4312;DHT22;2169;49.086;9.284;2023-05-27T05:15:20;14.20;47.70
4312;DHT22;2169;49.086;9.284;2023-05-27T05:17:46;14.20;47.70
4312;DHT22;2169;49.086;9.284;2023-05-27T05:20:14;14.20;47.70
4312;DHT22;2169;49.086;9.284;2023-05-27T05:22:44;14.20;47.80
4312;DHT22;2169;49.086;9.284;2023-05-27T05:25:11;14.20;47.80
4312;DHT22;2169;49.086;9.284;2023-05-27T05:27:38;14.20;47.80
4312;DHT22;2169;49.086;9.284;2023-05-27T05:30:06;14.20;47.90
4312;DHT22;2169;49.086;9.284;2023-05-27T05:32:33;14.20;47.90
4312;DHT22;2169;49.086;9.284;2023-05-27T05:35:00;14.30;48.10
4312;DHT22;2169;49.086;9.284;2023-05-27T05:37:27;14.30;48.20
4312;DHT22;2169;49.086;9.284;2023-05-27T05:39:55;14.40;48.30
4312;DHT22;2169;49.086;9.284;2023-05-27T05:42:22;14.50;48.40
4312;DHT22;2169;49.086;9.284;2023-05-27T05:44:51;14.50;48.40
4312;DHT22;2169;49.086;9.284;2023-05-27T05:47:18;14.60;48.50
4312;DHT22;2169;49.086;9.284;2023-05-27T05:49:46;14.60;48.40
4312;DHT22;2169;49.086;9.284;2023-05-27T05:52:13;14.70;48.40
4312;DHT22;2169;49.086;9.284;2023-05-27T05:54:39;14.80;48.50
4312;DHT22;2169;49.086;9.284;2023-05-27T05:57:08;14.90;48.60
4312;DHT22;2169;49.086;9.284;2023-05-27T05:59:35;15.00;48.60
4312;DHT22;2169;49.086;9.284;2023-05-27T06:02:02;15.10;48.50
4312;DHT22;2169;49.086;9.284;2023-05-27T06:04:29;15.20;48.40
4312;DHT22;2169;49.086;9.284;2023-05-27T06:06:56;15.30;48.40
4312;DHT22;2169;49.086;9.284;2023-05-27T06:09:23;15.40;48.40
4312;DHT22;2169;49.086;9.284;2023-05-27T06:11:50;15.40;48.20
4312;DHT22;2169;49.086;9.284;2023-05-27T06:14:20;15.60;48.40
4312;DHT22;2169;49.086;9.284;2023-05-27T06:16:47;15.60;48.20
4312;DHT22;2169;49.086;9.284;2023-05-27T06:19:14;15.70;48.20
4312;DHT22;2169;49.086;9.284;2023-05-27T06:21:42;15.80;48.20
4312;DHT22;2169;49.086;9.284;2023-05-27T06:24:09;15.90;48.20
4312;DHT22;2169;49.086;9.284;2023-05-27T06:26:36;16.00;48.10
4312;DHT22;2169;49.086;9.284;2023-05-27T06:29:03;16.10;48.10
4312;DHT22;2169;49.086;9.284;2023-05-27T06:31:31;16.20;48.00
4312;DHT22;2169;49.086;9.284;2023-05-27T06:33:59;16.40;48.00
4312;DHT22;2169;49.086;9.284;2023-05-27T06:36:25;16.50;47.90
4312;DHT22;2169;49.086;9.284;2023-05-27T06:38:53;16.70;47.90
4312;DHT22;2169;49.086;9.284;2023-05-27T06:41:20;16.80;47.70
4312;DHT22;2169;49.086;9.284;2023-05-27T06:43:47;16.90;47.50
4312;DHT22;2169;49.086;9.284;2023-05-27T06:46:15;17.00;47.40
4312;DHT22;2169;49.086;9.284;2023-05-27T06:48:43;17.10;47.20
4312;DHT22;2169;49.086;9.284;2023-05-27T06:51:10;17.20;47.00
4312;DHT22;2169;49.086;9.284;2023-05-27T06:53:37;17.20;46.80
4312;DHT22;2169;49.086;9.284;2023-05-27T06:56:05;17.40;46.90
4312;DHT22;2169;49.086;9.284;2023-05-27T06:58:32;17.50;46.80
4312;DHT22;2169;49.086;9.284;2023-05-27T07:00:58;17.60;46.60
4312;DHT22;2169;49.086;9.284;2023-05-27T07:03:25;17.70;46.40
4312;DHT22;2169;49.086;9.284;2023-05-27T07:05:54;17.80;46.20
4312;DHT22;2169;49.086;9.284;2023-05-27T07:08:22;18.00;46.30
4312;DHT22;2169;49.086;9.284;2023-05-27T07:10:49;18.10;46.20
4312;DHT22;2169;49.086;9.284;2023-05-27T07:13:16;18.10;45.80
4312;DHT22;2169;49.086;9.284;2023-05-27T07:15:43;18.30;46.50
4312;DHT22;2169;49.086;9.284;2023-05-27T07:18:10;18.40;45.70
4312;DHT22;2169;49.086;9.284;2023-05-27T07:20:38;18.40;45.50
4312;DHT22;2169;49.086;9.284;2023-05-27T07:23:06;18.60;45.50
4312;DHT22;2169;49.086;9.284;2023-05-27T07:25:34;18.70;45.50
4312;DHT22;2169;49.086;9.284;2023-05-27T07:28:01;18.90;45.40
4312;DHT22;2169;49.086;9.284;2023-05-27T07:30:28;19.00;45.30
4312;DHT22;2169;49.086;9.284;2023-05-27T07:32:56;19.20;45.70
4312;DHT22;2169;49.086;9.284;2023-05-27T07:35:23;19.30;44.70
4312;DHT22;2169;49.086;9.284;2023-05-27T07:37:50;19.30;44.50
4312;DHT22;2169;49.086;9.284;2023-05-27T07:40:18;19.40;44.40
4312;DHT22;2169;49.086;9.284;2023-05-27T07:42:45;19.50;44.30
4312;DHT22;2169;49.086;9.284;2023-05-27T07:45:12;19.60;44.00
4312;DHT22;2169;49.086;9.284;2023-05-27T07:47:40;19.70;44.00
4312;DHT22;2169;49.086;9.284;2023-05-27T07:50:08;19.80;43.90
4312;DHT22;2169;49.086;9.284;2023-05-27T07:52:35;19.90;43.90
4312;DHT22;2169;49.086;9.284;2023-05-27T07:55:03;19.90;43.40
4312;DHT22;2169;49.086;9.284;2023-05-27T07:57:32;20.10;43.70
4312;DHT22;2169;49.086;9.284;2023-05-27T08:03:21;20.40;43.50
4312;DHT22;2169;49.086;9.284;2023-05-27T08:05:49;20.50;43.20
4312;DHT22;2169;49.086;9.284;2023-05-27T08:08:16;20.70;43.10
4312;DHT22;2169;49.086;9.284;2023-05-27T08:10:43;20.80;43.00
4312;DHT22;2169;49.086;9.284;2023-05-27T08:13:13;20.90;42.80
4312;DHT22;2169;49.086;9.284;2023-05-27T08:15:40;21.00;42.70
4312;DHT22;2169;49.086;9.284;2023-05-27T08:18:07;21.10;42.60
4312;DHT22;2169;49.086;9.284;2023-05-27T08:20:34;21.20;42.50
4312;DHT22;2169;49.086;9.284;2023-05-27T08:23:01;21.40;42.50
4312;DHT22;2169;49.086;9.284;2023-05-27T08:25:29;21.50;42.30
4312;DHT22;2169;49.086;9.284;2023-05-27T08:27:56;21.60;42.20
4312;DHT22;2169;49.086;9.284;2023-05-27T08:30:28;21.70;42.10
4312;DHT22;2169;49.086;9.284;2023-05-27T08:32:56;21.90;42.10
4312;DHT22;2169;49.086;9.284;2023-05-27T08:35:23;22.00;41.60
4312;DHT22;2169;49.086;9.284;2023-05-27T08:37:51;22.10;41.30
4312;DHT22;2169;49.086;9.284;2023-05-27T08:40:18;22.20;41.70
4312;DHT22;2169;49.086;9.284;2023-05-27T08:42:46;22.20;41.00
4312;DHT22;2169;49.086;9.284;2023-05-27T08:45:14;22.30;41.10
4312;DHT22;2169;49.086;9.284;2023-05-27T08:47:43;22.40;41.00
4312;DHT22;2169;49.086;9.284;2023-05-27T08:50:10;22.50;40.80
4312;DHT22;2169;49.086;9.284;2023-05-27T08:52:42;22.60;40.60
4312;DHT22;2169;49.086;9.284;2023-05-27T08:55:14;22.70;40.50
4312;DHT22;2169;49.086;9.284;2023-05-27T08:57:43;22.80;40.10
4312;DHT22;2169;49.086;9.284;2023-05-27T09:00:12;22.80;40.00
4312;DHT22;2169;49.086;9.284;2023-05-27T09:02:40;22.90;40.00
4312;DHT22;2169;49.086;9.284;2023-05-27T09:05:10;23.00;39.90
4312;DHT22;2169;49.086;9.284;2023-05-27T09:07:37;23.10;39.90
4312;DHT22;2169;49.086;9.284;2023-05-27T09:10:06;23.10;39.80
4312;DHT22;2169;49.086;9.284;2023-05-27T09:12:33;23.20;39.80
4312;DHT22;2169;49.086;9.284;2023-05-27T09:15:01;23.30;39.50
4312;DHT22;2169;49.086;9.284;2023-05-27T09:17:28;23.40;39.60
4312;DHT22;2169;49.086;9.284;2023-05-27T09:19:55;23.50;39.60
4312;DHT22;2169;49.086;9.284;2023-05-27T09:22:25;23.70;39.50
4312;DHT22;2169;49.086;9.284;2023-05-27T09:24:53;23.80;39.30
4312;DHT22;2169;49.086;9.284;2023-05-27T09:27:24;23.90;39.20
4312;DHT22;2169;49.086;9.284;2023-05-27T09:29:51;24.00;38.90
4312;DHT22;2169;49.086;9.284;2023-05-27T09:32:25;24.00;38.80
4312;DHT22;2169;49.086;9.284;2023-05-27T09:34:53;24.10;38.70
4312;DHT22;2169;49.086;9.284;2023-05-27T09:37:23;24.10;38.70
4312;DHT22;2169;49.086;9.284;2023-05-27T09:39:52;24.20;38.60
4312;DHT22;2169;49.086;9.284;2023-05-27T09:42:19;24.30;38.60
4312;DHT22;2169;49.086;9.284;2023-05-27T09:44:46;24.40;38.40
4312;DHT22;2169;49.086;9.284;2023-05-27T09:47:16;24.50;38.20
4312;DHT22;2169;49.086;9.284;2023-05-27T09:49:45;24.50;38.00
4312;DHT22;2169;49.086;9.284;2023-05-27T09:52:15;24.60;38.10
4312;DHT22;2169;49.086;9.284;2023-05-27T09:54:46;24.60;37.60
4312;DHT22;2169;49.086;9.284;2023-05-27T09:57:16;24.60;37.50
4312;DHT22;2169;49.086;9.284;2023-05-27T09:59:48;24.50;37.40
4312;DHT22;2169;49.086;9.284;2023-05-27T10:02:18;24.50;37.50
4312;DHT22;2169;49.086;9.284;2023-05-27T10:04:48;24.50;37.40
4312;DHT22;2169;49.086;9.284;2023-05-27T10:07:17;24.50;37.30
4312;DHT22;2169;49.086;9.284;2023-05-27T10:09:47;24.60;37.70
4312;DHT22;2169;49.086;9.284;2023-05-27T10:12:18;24.60;37.60
4312;DHT22;2169;49.086;9.284;2023-05-27T10:14:45;24.70;37.60
4312;DHT22;2169;49.086;9.284;2023-05-27T10:17:12;24.70;37.30
4312;DHT22;2169;49.086;9.284;2023-05-27T10:19:52;24.70;37.30
4312;DHT22;2169;49.086;9.284;2023-05-27T10:22:20;24.80;38.10
4312;DHT22;2169;49.086;9.284;2023-05-27T10:24:47;24.80;37.20
4312;DHT22;2169;49.086;9.284;2023-05-27T10:27:17;24.80;37.30
4312;DHT22;2169;49.086;9.284;2023-05-27T10:29:44;24.80;37.30
4312;DHT22;2169;49.086;9.284;2023-05-27T10:32:11;24.80;37.10
4312;DHT22;2169;49.086;9.284;2023-05-27T10:34:43;24.90;36.90
4312;DHT22;2169;49.086;9.284;2023-05-27T10:37:19;25.00;36.80
4312;DHT22;2169;49.086;9.284;2023-05-27T10:39:56;25.00;36.80
4312;DHT22;2169;49.086;9.284;2023-05-27T10:42:25;25.10;36.70
4312;DHT22;2169;49.086;9.284;2023-05-27T10:45:04;25.10;36.50
4312;DHT22;2169;49.086;9.284;2023-05-27T10:47:35;25.20;36.50
4312;DHT22;2169;49.086;9.284;2023-05-27T10:50:10;25.30;36.10
4312;DHT22;2169;49.086;9.284;2023-05-27T10:52:38;25.20;35.90
4312;DHT22;2169;49.086;9.284;2023-05-27T10:55:07;25.20;35.90
4312;DHT22;2169;49.086;9.284;2023-05-27T10:57:35;25.30;35.70
4312;DHT22;2169;49.086;9.284;2023-05-27T11:00:04;25.20;35.20
4312;DHT22;2169;49.086;9.284;2023-05-27T11:02:36;25.20;35.30
4312;DHT22;2169;49.086;9.284;2023-05-27T11:05:14;25.30;35.30
4312;DHT22;2169;49.086;9.284;2023-05-27T11:07:41;25.30;35.30
4312;DHT22;2169;49.086;9.284;2023-05-27T11:10:09;25.40;35.20
4312;DHT22;2169;49.086;9.284;2023-05-27T11:12:43;25.50;35.10
4312;DHT22;2169;49.086;9.284;2023-05-27T11:15:11;25.60;34.60
4312;DHT22;2169;49.086;9.284;2023-05-27T11:17:39;25.70;34.40
4312;DHT22;2169;49.086;9.284;2023-05-27T11:20:06;25.70;34.30
4312;DHT22;2169;49.086;9.284;2023-05-27T11:22:34;25.70;34.10
4312;DHT22;2169;49.086;9.284;2023-05-27T11:25:03;25.80;34.00
4312;DHT22;2169;49.086;9.284;2023-05-27T11:27:35;25.80;33.90
4312;DHT22;2169;49.086;9.284;2023-05-27T11:30:08;25.80;33.50
4312;DHT22;2169;49.086;9.284;2023-05-27T11:32:37;25.80;33.50
4312;DHT22;2169;49.086;9.284;2023-05-27T11:35:04;25.70;33.20
4312;DHT22;2169;49.086;9.284;2023-05-27T11:37:34;25.70;33.90
4312;DHT22;2169;49.086;9.284;2023-05-27T11:40:02;25.70;33.20
4312;DHT22;2169;49.086;9.284;2023-05-27T11:42:36;25.80;33.40
4312;DHT22;2169;49.086;9.284;2023-05-27T11:45:04;25.90;32.80
4312;DHT22;2169;49.086;9.284;2023-05-27T11:47:40;25.90;32.60
4312;DHT22;2169;49.086;9.284;2023-05-27T11:50:08;26.00;32.60
4312;DHT22;2169;49.086;9.284;2023-05-27T11:52:35;26.00;32.50
4312;DHT22;2169;49.086;9.284;2023-05-27T11:55:14;26.00;32.50
4312;DHT22;2169;49.086;9.284;2023-05-27T11:57:41;26.10;32.40
4312;DHT22;2169;49.086;9.284;2023-05-27T12:00:09;26.10;32.60
4312;DHT22;2169;49.086;9.284;2023-05-27T12:02:38;26.20;32.30
4312;DHT22;2169;49.086;9.284;2023-05-27T12:05:07;26.30;32.30
4312;DHT22;2169;49.086;9.284;2023-05-27T12:07:34;26.30;32.20
4312;DHT22;2169;49.086;9.284;2023-05-27T12:10:06;26.30;32.10
4312;DHT22;2169;49.086;9.284;2023-05-27T12:12:33;26.30;32.00
4312;DHT22;2169;49.086;9.284;2023-05-27T12:15:00;26.40;31.90
4312;DHT22;2169;49.086;9.284;2023-05-27T12:17:27;26.40;31.90
4312;DHT22;2169;49.086;9.284;2023-05-27T12:19:56;26.40;32.00
4312;DHT22;2169;49.086;9.284;2023-05-27T12:22:23;26.40;32.10
4312;DHT22;2169;49.086;9.284;2023-05-27T12:24:50;26.50;32.20
4312;DHT22;2169;49.086;9.284;2023-05-27T12:27:18;26.50;32.10
4312;DHT22;2169;49.086;9.284;2023-05-27T12:29:45;26.60;32.10
4312;DHT22;2169;49.086;9.284;2023-05-27T12:32:13;26.60;32.10
4312;DHT22;2169;49.086;9.284;2023-05-27T12:34:40;26.70;31.90
4312;DHT22;2169;49.086;9.284;2023-05-27T12:37:09;26.70;31.70
4312;DHT22;2169;49.086;9.284;2023-05-27T12:39:36;26.70;31.40
4312;DHT22;2169;49.086;9.284;2023-05-27T12:42:04;26.70;31.30
4312;DHT22;2169;49.086;9.284;2023-05-27T12:44:31;26.60;31.20
4312;DHT22;2169;49.086;9.284;2023-05-27T12:46:58;26.70;31.30
4312;DHT22;2169;49.086;9.284;2023-05-27T12:49:25;26.70;31.20
4312;DHT22;2169;49.086;9.284;2023-05-27T12:51:53;26.70;30.90
4312;DHT22;2169;49.086;9.284;2023-05-27T12:54:22;26.80;30.70
4312;DHT22;2169;49.086;9.284;2023-05-27T12:56:49;26.80;30.50
4312;DHT22;2169;49.086;9.284;2023-05-27T12:59:17;26.90;30.60
4312;DHT22;2169;49.086;9.284;2023-05-27T13:01:44;26.90;30.40
4312;DHT22;2169;49.086;9.284;2023-05-27T13:04:11;27.00;30.40
4312;DHT22;2169;49.086;9.284;2023-05-27T13:06:38;27.00;30.10
4312;DHT22;2169;49.086;9.284;2023-05-27T13:09:05;27.00;29.60
4312;DHT22;2169;49.086;9.284;2023-05-27T13:11:35;26.90;29.20
4312;DHT22;2169;49.086;9.284;2023-05-27T13:14:02;26.80;29.10
4312;DHT22;2169;49.086;9.284;2023-05-27T13:16:29;26.80;29.10
4312;DHT22;2169;49.086;9.284;2023-05-27T13:18:56;26.80;29.00
4312;DHT22;2169;49.086;9.284;2023-05-27T13:21:25;26.90;28.80
4312;DHT22;2169;49.086;9.284;2023-05-27T13:23:53;27.00;28.90
4312;DHT22;2169;49.086;9.284;2023-05-27T13:26:20;27.10;28.70
4312;DHT22;2169;49.086;9.284;2023-05-27T13:28:50;27.10;28.30
4312;DHT22;2169;49.086;9.284;2023-05-27T13:31:17;27.10;27.90
4312;DHT22;2169;49.086;9.284;2023-05-27T13:33:45;27.10;27.60
4312;DHT22;2169;49.086;9.284;2023-05-27T13:36:12;27.10;27.60
4312;DHT22;2169;49.086;9.284;2023-05-27T13:38:39;27.10;27.30
4312;DHT22;2169;49.086;9.284;2023-05-27T13:41:06;27.20;27.50
4312;DHT22;2169;49.086;9.284;2023-05-27T13:43:35;27.20;27.30
4312;DHT22;2169;49.086;9.284;2023-05-27T13:46:03;27.20;27.10
4312;DHT22;2169;49.086;9.284;2023-05-27T13:48:31;27.20;27.10
4312;DHT22;2169;49.086;9.284;2023-05-27T13:50:58;27.20;26.70
4312;DHT22;2169;49.086;9.284;2023-05-27T13:53:25;27.20;26.80
4312;DHT22;2169;49.086;9.284;2023-05-27T13:55:53;27.20;26.80
4312;DHT22;2169;49.086;9.284;2023-05-27T13:58:20;27.30;26.90
4312;DHT22;2169;49.086;9.284;2023-05-27T14:00:47;27.30;26.90
4312;DHT22;2169;49.086;9.284;2023-05-27T14:03:15;27.30;26.90
4312;DHT22;2169;49.086;9.284;2023-05-27T14:05:42;27.40;26.80
4312;DHT22;2169;49.086;9.284;2023-05-27T14:08:09;27.40;26.50
4312;DHT22;2169;49.086;9.284;2023-05-27T14:10:36;27.30;26.50
4312;DHT22;2169;49.086;9.284;2023-05-27T14:13:03;27.40;26.60
4312;DHT22;2169;49.086;9.284;2023-05-27T14:15:30;27.30;26.30
4312;DHT22;2169;49.086;9.284;2023-05-27T14:17:57;27.30;26.40
4312;DHT22;2169;49.086;9.284;2023-05-27T14:20:27;27.40;26.30
4312;DHT22;2169;49.086;9.284;2023-05-27T14:22:54;27.40;26.10
4312;DHT22;2169;49.086;9.284;2023-05-27T14:25:21;27.40;26.20
4312;DHT22;2169;49.086;9.284;2023-05-27T14:27:49;27.40;26.00
4312;DHT22;2169;49.086;9.284;2023-05-27T14:30:16;27.40;25.80
4312;DHT22;2169;49.086;9.284;2023-05-27T14:32:43;27.40;25.90
4312;DHT22;2169;49.086;9.284;2023-05-27T14:35:10;27.40;25.80
4312;DHT22;2169;49.086;9.284;2023-05-27T14:37:39;27.40;26.00
4312;DHT22;2169;49.086;9.284;2023-05-27T14:40:07;27.50;26.00
4312;DHT22;2169;49.086;9.284;2023-05-27T14:42:34;27.40;25.90
4312;DHT22;2169;49.086;9.284;2023-05-27T14:45:01;27.50;25.90
4312;DHT22;2169;49.086;9.284;2023-05-27T14:47:28;27.50;25.90
4312;DHT22;2169;49.086;9.284;2023-05-27T14:49:56;27.50;26.00
4312;DHT22;2169;49.086;9.284;2023-05-27T14:52:23;27.50;26.10
4312;DHT22;2169;49.086;9.284;2023-05-27T14:54:51;27.60;26.20
4312;DHT22;2169;49.086;9.284;2023-05-27T14:57:18;27.70;26.20
4312;DHT22;2169;49.086;9.284;2023-05-27T14:59:45;27.70;25.90
4312;DHT22;2169;49.086;9.284;2023-05-27T15:02:12;27.70;25.90
4312;DHT22;2169;49.086;9.284;2023-05-27T15:04:39;27.70;26.00
4312;DHT22;2169;49.086;9.284;2023-05-27T15:07:06;27.70;26.20
4312;DHT22;2169;49.086;9.284;2023-05-27T15:09:33;27.80;26.20
4312;DHT22;2169;49.086;9.284;2023-05-27T15:12:10;27.80;26.10
4312;DHT22;2169;49.086;9.284;2023-05-27T15:14:37;27.80;25.80
4312;DHT22;2169;49.086;9.284;2023-05-27T15:17:04;27.80;26.00
4312;DHT22;2169;49.086;9.284;2023-05-27T15:19:31;27.80;26.00
4312;DHT22;2169;49.086;9.284;2023-05-27T15:21:58;27.80;26.00
4312;DHT22;2169;49.086;9.284;2023-05-27T15:24:32;27.90;26.10
4312;DHT22;2169;49.086;9.284;2023-05-27T15:26:59;27.90;26.00
4312;DHT22;2169;49.086;9.284;2023-05-27T15:29:29;27.90;25.80
4312;DHT22;2169;49.086;9.284;2023-05-27T15:31:56;27.90;26.00
4312;DHT22;2169;49.086;9.284;2023-05-27T15:34:23;27.80;25.90
4312;DHT22;2169;49.086;9.284;2023-05-27T15:36:56;27.70;26.10
4312;DHT22;2169;49.086;9.284;2023-05-27T15:39:24;27.80;26.20
4312;DHT22;2169;49.086;9.284;2023-05-27T15:41:51;27.80;26.20
4312;DHT22;2169;49.086;9.284;2023-05-27T15:44:18;27.80;26.10
4312;DHT22;2169;49.086;9.284;2023-05-27T15:46:47;27.80;26.00
4312;DHT22;2169;49.086;9.284;2023-05-27T15:49:17;27.90;26.20
4312;DHT22;2169;49.086;9.284;2023-05-27T15:51:45;27.90;26.10
4312;DHT22;2169;49.086;9.284;2023-05-27T15:54:12;27.90;26.20
4312;DHT22;2169;49.086;9.284;2023-05-27T15:56:39;28.00;26.40
4312;DHT22;2169;49.086;9.284;2023-05-27T15:59:07;28.00;26.30
4312;DHT22;2169;49.086;9.284;2023-05-27T16:01:35;28.00;26.20
4312;DHT22;2169;49.086;9.284;2023-05-27T16:04:06;28.00;26.10
4312;DHT22;2169;49.086;9.284;2023-05-27T16:06:33;28.00;26.20
4312;DHT22;2169;49.086;9.284;2023-05-27T16:09:00;28.10;26.30
4312;DHT22;2169;49.086;9.284;2023-05-27T16:11:28;28.00;26.30